Ely, Nevada Weather observations

Data are for observation ending at time listed.
 Day   Time    Ave.   Ave.  Ave.  Vector   Max.   Stn.    Total    Solar   Ave.  
  of    of     Air    Rel.  Wind   Wind    Wind   Baro.  Precip.   Rad.    Soil  
Year   Day     Temp.  Hum.  Speed  Dir.    Gust   Pres.                    Temp. 
2014   (PST)    F      %     mph   deg.    mph     mb.     in.     W/m2     F   
------------------------------------------------------------------------------
 107   11:40   66.4    20    6.9   184     11.9   807.3    0.00    1027    76.1
 107   11:50   67.3    19    4.0   153      8.8   807.2    0.00    1020    76.7
 107   12:00   67.5    18    7.2   131     15.4   807.0    0.00    1025    77.3
 107   12:10   67.9    18    7.0   129     11.8   806.9    0.00    1010    77.7
 107   12:20   69.0    17    9.1   194     18.9   806.8    0.00    1008    77.8
 107   12:30   70.0    16   13.5   218     20.9   806.7    0.00    1003    77.3
 107   12:40   69.6    16   11.9   219     20.3   806.5    0.00     995    76.2
 107   12:50   69.7    16   10.1   217     17.2   806.4    0.00     982    75.6
 107   13:00   70.4    15   14.6   204     20.8   806.3    0.00     968    75.8
 107   13:10   70.8    15   16.1   207     25.5   806.3    0.00     947    76.2
 107   13:20   71.2    15   16.6   202     24.5   806.2    0.00     942    76.4
 107   13:30   71.2    15   16.8   211     26.3   806.2    0.00     903    76.5
 107   13:40   70.8    16   18.2   203     27.5   806.2    0.00     896    76.5
 107   13:50   71.0    16   19.6   199     26.7   806.1    0.00     867    76.5
 107   14:00   71.1    16   14.5   200     24.5   806.1    0.00     851    76.3
 107   14:10   70.7    16   14.3   176     22.8   806.0    0.00     826    76.2
 107   14:20   71.0    16   14.6   196     24.0   805.9    0.00     807    76.0
 107   14:30   69.9    16   14.7   155     33.5   805.8    0.00     778    75.8
 107   14:40   69.9    16   13.8   165     22.2   805.6    0.00     752    75.5
 107   14:50   70.3    17   14.2   156     23.5   805.5    0.00     700    75.2
 107   15:00   70.1    17   13.9   161     22.6   805.4    0.00     652    74.8
 107   15:10   70.3    16   14.3   167     28.4   805.3    0.00     625    74.4
 107   15:20   71.1    16   13.0   192     21.7   805.2    0.00     550    73.9
 107   15:30   70.2    16   13.3   156     21.5   805.1    0.00     485    73.4
 107   15:40   69.9    16   15.4   147     27.0   805.0    0.00     426    72.9
 107   15:50   69.8    16   15.3   153     26.1   805.0    0.00     410    72.4
 107   16:00   70.1    16   14.8   150     21.7   805.0    0.00     416    71.9
 107   16:10   70.1    16   11.5   166     20.5   805.0    0.00     265    71.4
 107   16:20   69.2    17   17.9   142     23.8   804.9    0.00     209    70.8
 107   16:30   68.6    17   14.3   154     20.1   805.0    0.00     280    70.2
 107   16:40   69.2    17   15.6   147     24.5   804.9    0.00     316    69.7
 107   16:50   69.2    17   17.2   143     22.2   804.8    0.00     309    69.5
 107   17:00   69.0    17   14.5   147     20.1   804.8    0.00     250    69.2
 107   17:10   69.1    17   14.2   144     19.6   804.7    0.00     189    68.8
 107   17:20   68.5    17   14.4   153     21.7   804.7    0.00     125    68.3
 107   17:30   67.7    17   13.6   147     24.1   804.5    0.00      46    67.7
 107   17:40   66.8    17   11.0   149     16.5   804.5    0.00      31    67.1
 107   17:50   65.7    18    9.8   151     13.7   804.5    0.00      24    66.5
 107   18:00   64.6    19    9.4   146     13.2   804.5    0.00      20    65.8
 107   18:10   63.4    20    8.1   146     10.2   804.4    0.00      11    65.2
 107   18:20   62.1    21    8.5   146     12.9   804.5    0.00       7    64.6
 107   18:30   61.5    21    9.7   155     14.0   804.5    0.00       5    64.0
 107   18:40   62.1    20   11.1   151     19.3   804.6    0.00       1    63.4
 107   18:50   61.3    21    9.8   130     18.1   804.7    0.00       0    62.9
 107   19:00   60.8    21   10.5   124     14.0   804.7    0.00       0    62.5
 107   19:10   60.4    21    9.6   129     13.6   804.9    0.00       0    62.0
 107   19:20   59.6    22    9.9   139     14.4   805.1    0.00       0    61.6
 107   19:30   59.2    22   10.2   133     14.2   805.2    0.00       0    61.2
 107   19:40   58.3    23    9.1   145     14.2   805.4    0.00       0    60.9
 107   19:50   57.7    24   10.4   134     16.7   805.5    0.00       0    60.5
 107   20:00   56.4    26   12.8   144     18.1   805.6    0.00       0    60.1
 107   20:10   55.9    27   14.3   139     19.6   805.5    0.00       0    59.7
 107   20:20   55.4    27   12.8   132     17.8   805.5    0.00       0    59.4
 107   20:30   55.8    26   12.9   134     16.2   805.5    0.00       0    59.1
 107   20:40   55.0    28   10.6   133     15.5   805.6    0.00       0    58.8
 107   20:50   54.9    28    7.4   134     11.2   805.6    0.00       0    58.5
 107   21:00   56.3    25   10.5   142     16.4   805.5    0.00       0    58.2
 107   21:10   57.7    24   14.2   147     19.0   805.5    0.00       0    57.9
 107   21:20   57.7    24   14.2   147     19.2   805.4    0.00       0    57.8
 107   21:30   56.9    25   14.8   144     21.6   805.4    0.00       0    57.7
 107   21:40   56.4    25   15.6   141     21.0   805.4    0.00       0    57.5
 107   21:50   56.5    25   16.2   144     22.5   805.4    0.00       0    57.4
 107   22:00   56.4    26   17.0   145     25.2   805.4    0.00       0    57.2
 107   22:10   56.2    26   17.9   141     23.5   805.3    0.00       0    57.1
 107   22:20   56.6    25   17.9   143     25.0   805.4    0.00       1    57.0
 107   22:30   57.1    24   17.2   137     23.5   805.3    0.00       0    56.9
 107   22:40   57.5    24   18.0   135     22.4   805.3    0.00       0    56.8
 107   22:50   57.7    24   17.3   136     22.6   805.4    0.00       0    56.7
 107   23:00   57.5    24   16.4   138     22.4   805.5    0.00       0    56.7
 107   23:10   56.5    25   14.8   151     19.1   805.5    0.00       0    56.6
 107   23:20   54.8    27   15.1   146     20.9   805.6    0.00       0    56.4
 107   23:30   55.0    27   15.8   147     21.6   805.6    0.00       0    56.3
 107   23:40   54.3    27   16.5   144     20.8   805.5    0.00       0    56.1
 107   23:50   53.3    28   18.3   149     22.4   805.6    0.00       0    55.9
 108    0:00   52.8    29   18.1   143     22.9   805.5    0.00       0    55.8
 108    0:10   52.8    29   17.5   140     22.6   805.6    0.00       0    55.6
 108    0:20   54.2    26   18.4   137     24.4   805.5    0.00       1    55.4
 108    0:30   53.7    27   16.6   143     22.1   805.6    0.00       0    55.3
 108    0:40   54.6    26   17.1   138     22.5   805.5    0.00       1    55.2
 108    0:50   55.3    25   17.6   138     22.8   805.4    0.00       0    55.1
 108    1:00   55.3    24   17.4   138     21.9   805.4    0.00       0    55.1
 108    1:10   54.9    25   16.1   145     20.9   805.4    0.00       0    55.0
 108    1:20   53.0    28   14.9   147     18.6   805.5    0.00       0    55.0
 108    1:30   52.1    28   15.1   148     18.7   805.4    0.00       0    54.9
 108    1:40   51.8    29   15.8   151     19.0   805.5    0.00       0    54.7
 108    1:50   51.8    29   14.4   154     19.1   805.5    0.00       0    54.5
 108    2:00   50.8    30   11.3   164     16.2   805.5    0.00       0    54.4
 108    2:10   50.3    30   14.0   156     19.2   805.5    0.00       0    54.2
 108    2:20   49.3    31   16.1   151     19.7   805.4    0.00       0    53.9
 108    2:30   48.3    33   15.6   153     19.7   805.4    0.00       0    53.6
 108    2:40   47.5    33   16.4   150     19.9   805.3    0.00       0    53.4
 108    2:50   47.0    34   17.0   152     20.7   805.3    0.00       0    53.1
 108    3:00   46.2    35   16.3   154     21.5   805.3    0.00       0    52.8
 108    3:10   45.9    34   16.9   153     21.6   805.3    0.00       0    52.5
 108    3:20   45.6    34   17.4   150     21.8   805.4    0.00       0    52.1
 108    3:30   44.3    36   16.7   152     20.4   805.4    0.00       0    51.7
 108    3:40   44.0    37   16.3   150     20.5   805.5    0.00       0    51.4
 108    3:50   45.2    34   13.8   150     17.9   805.5    0.00       0    51.1
 108    4:00   45.5    33   12.1   157     16.3   805.4    0.00       1    50.9
 108    4:10   44.3    36   11.9   160     18.0   805.5    0.00       0    50.7
 108    4:20   43.7    38   11.4   165     17.1   805.5    0.00       0    50.5
 108    4:30   43.8    38   10.9   172     15.7   805.6    0.00       0    50.3
 108    4:40   44.6    36   11.1   164     17.5   805.5    0.00       1    50.1
 108    4:50   44.9    34   11.0   177     15.9   805.5    0.00       3    50.0
 108    5:00   45.6    33   10.8   174     16.1   805.6    0.00       7    49.8
 108    5:10   44.6    35    9.3   166     14.7   805.7    0.00       7    49.7
 108    5:20   42.8    38   14.7   151     18.3   805.8    0.00      11    49.5
 108    5:30   42.7    38   10.2   161     16.9   806.0    0.00      26    49.4
 108    5:40   43.4    36   10.1   162     16.3   806.0    0.00      36    49.3
 108    5:50   44.1    36    8.9   166     14.6   806.0    0.00      62    49.2
 108    6:00   45.4    34   11.2   161     15.9   806.1    0.00      98    49.2
 108    6:10   46.5    33   10.9   159     18.1   806.2    0.00     120    49.4
 108    6:20   48.1    32   11.2   158     17.5   806.3    0.00     132    49.7
 108    6:30   49.2    32    8.7   167     12.7   806.4    0.00      81    50.2
 108    6:40   49.6    32   11.2   195     14.8   806.5    0.00      82    50.4
 108    6:50   50.0    31   12.1   195     15.6   806.5    0.00      93    50.6
 108    7:00   50.6    30   10.4   179     14.8   806.6    0.00     132    50.8
 108    7:10   51.2    29   10.2   175     16.7   806.7    0.00     140    51.0
 108    7:20   51.6    28   10.6   175     16.2   806.8    0.00     140    51.4
 108    7:30   52.1    28    9.9   175     14.5   806.9    0.00     153    51.7
 108    7:40   52.9    28    9.6   164     14.2   806.9    0.00     277    52.0
 108    7:50   54.8    27    9.8   161     15.6   806.9    0.00     402    52.6
 108    8:00   55.7    26    9.9   184     13.8   807.0    0.00     258    53.6
 108    8:10   56.7    25   10.7   196     14.2   806.9    0.00     276    54.2
 108    8:20   57.0    25    9.4   180     13.7   807.0    0.00     341    54.8
 108    8:30   57.4    25    8.3   164     13.2   807.0    0.00     240    55.5
 108    8:40   57.2    26    8.9   181     12.4   807.2    0.00     249    55.9
 108    8:50   57.8    26    7.4   186     11.0   807.3    0.00     234    56.1
 108    9:00   58.1    27    6.1   192      9.1   807.4    0.00     194    56.5
 108    9:10   57.9    27    5.9   210      9.6   807.4    0.00     191    56.6
 108    9:20   58.2    27    4.9   214      6.4   807.4    0.00     211    56.7
 108    9:30   58.7    26    4.0   216      6.0   807.3    0.00     275    56.9
 108    9:40   59.9    25    6.4   198     10.0   807.3    0.00     360    57.3
 108    9:50   61.0    24    9.1   193     13.0   807.3    0.00     504    58.0
 108   10:00   62.1    23    8.5   190     12.8   807.3    0.00     808    59.2
 108   10:10   63.0    22    7.4   185     12.3   807.2    0.00    1005    61.2
 108   10:20   64.1    22    7.0   190     13.5   807.3    0.00     982    63.8
 108   10:30   64.0    22    4.3   184      8.8   807.2    0.00     771    65.9
 108   10:40   65.0    21   10.2   214     15.8   807.1    0.00     861    67.4
 108   10:50   65.0    21    9.0   214     14.5   807.0    0.00     823    68.6
 108   11:00   65.9    20   10.5   205     18.0   806.9    0.00    1093    69.7
 108   11:10   66.3    19    8.7   200     19.9   806.9    0.00    1148    71.2
 108   11:20   66.7    19    7.5   166     15.8   806.8    0.00    1270    72.9
 108   11:30   66.6    19    8.1   202     14.5   806.6    0.00     714    74.6

Return to Ely, Nevada graphs page.


Western Regional Climate Center,wrcc@dri.edu